createdAt,value
2019-04-01T00:01:52.845Z,6.33
2019-04-01T00:04:23.222Z,6.23
2019-04-01T00:06:53.601Z,6.09
2019-04-01T00:09:23.884Z,5.87
2019-04-01T00:11:54.108Z,5.90
2019-04-01T00:14:25.128Z,5.82
2019-04-01T00:16:55.350Z,5.77
2019-04-01T00:19:26.383Z,5.64
2019-04-01T00:21:56.497Z,5.48
2019-04-01T00:24:26.776Z,5.47
2019-04-01T00:26:57.066Z,5.47
2019-04-01T00:29:27.781Z,5.51
2019-04-01T00:31:58.077Z,5.58
2019-04-01T00:34:28.257Z,5.54
2019-04-01T00:36:58.466Z,5.62
2019-04-01T00:39:28.774Z,5.49
2019-04-01T00:42:05.328Z,5.29
2019-04-01T00:44:35.688Z,5.25
2019-04-01T00:47:05.946Z,5.21
2019-04-01T00:49:36.261Z,5.21
2019-04-01T00:52:06.669Z,5.22
2019-04-01T00:54:37.271Z,5.28
2019-04-01T00:57:08.142Z,5.19
2019-04-01T00:59:38.407Z,5.04
2019-04-01T01:02:08.852Z,5.03
2019-04-01T01:04:43.479Z,5.11
2019-04-01T01:07:15.321Z,5.27
2019-04-01T01:09:47.266Z,5.35
2019-04-01T01:12:18.175Z,5.17
2019-04-01T01:14:48.596Z,5.03
2019-04-01T01:17:19.107Z,4.98
2019-04-01T01:19:49.802Z,4.99
2019-04-01T01:22:20.250Z,5.01
2019-04-01T01:24:50.766Z,4.98
2019-04-01T01:27:21.153Z,4.88
2019-04-01T01:29:51.874Z,4.84
2019-04-01T01:32:22.543Z,4.84
2019-04-01T01:34:52.921Z,4.84
2019-04-01T01:37:26.976Z,4.83
2019-04-01T01:39:58.119Z,4.85
2019-04-01T01:42:28.479Z,4.84
2019-04-01T01:44:59.029Z,5.05
2019-04-01T01:47:29.430Z,5.09
2019-04-01T01:49:59.793Z,5.00
2019-04-01T01:52:30.185Z,4.91
2019-04-01T01:55:00.701Z,5.06
2019-04-01T01:57:31.004Z,5.10
2019-04-01T02:00:01.392Z,5.05
2019-04-01T02:02:31.842Z,5.09
2019-04-01T02:05:02.223Z,5.10
2019-04-01T02:07:32.712Z,5.16
2019-04-01T02:10:03.612Z,5.24
2019-04-01T02:12:34.043Z,5.22
2019-04-01T02:15:04.886Z,5.19
2019-04-01T02:17:35.331Z,5.16
2019-04-01T02:20:06.075Z,5.33
2019-04-01T02:22:36.487Z,5.41
2019-04-01T02:25:07.174Z,5.37
2019-04-01T02:27:37.962Z,5.24
2019-04-01T02:30:08.476Z,5.20
2019-04-01T02:32:38.895Z,5.11
2019-04-01T02:35:09.635Z,4.92
2019-04-01T02:37:40.040Z,4.90
2019-04-01T02:40:10.745Z,4.79
2019-04-01T02:42:41.207Z,4.88
2019-04-01T02:45:11.835Z,4.90
2019-04-01T02:47:42.227Z,4.78
2019-04-01T02:50:12.937Z,4.71
2019-04-01T02:52:43.327Z,4.69
2019-04-01T02:55:17.956Z,4.75
2019-04-01T02:57:48.362Z,4.84
2019-04-01T03:00:20.340Z,4.97
2019-04-01T03:02:50.784Z,4.99
2019-04-01T03:05:21.095Z,5.01
2019-04-01T03:07:51.507Z,4.97
2019-04-01T03:10:21.880Z,4.83
2019-04-01T03:12:52.278Z,4.78
2019-04-01T03:15:22.945Z,4.70
2019-04-01T03:17:53.531Z,4.66
2019-04-01T03:20:24.178Z,4.62
2019-04-01T03:22:54.547Z,4.61
2019-04-01T03:25:24.869Z,4.56
2019-04-01T03:27:55.959Z,4.55
2019-04-01T03:30:26.380Z,4.57
2019-04-01T03:32:56.743Z,4.73
2019-04-01T03:35:27.216Z,4.84
2019-04-01T03:37:57.515Z,4.83
2019-04-01T03:40:28.301Z,4.84
2019-04-01T03:42:59.090Z,4.79
2019-04-01T03:45:29.538Z,4.85
2019-04-01T03:48:00.086Z,4.76
2019-04-01T03:50:30.532Z,4.88
2019-04-01T03:53:00.821Z,4.87
2019-04-01T03:55:31.151Z,4.81
2019-04-01T03:58:01.588Z,4.91
2019-04-01T04:00:31.899Z,4.87
2019-04-01T04:03:02.297Z,4.65
2019-04-01T04:05:33.129Z,4.66
2019-04-01T04:08:03.529Z,4.71
2019-04-01T04:10:33.945Z,4.60
2019-04-01T04:13:04.376Z,4.60
2019-04-01T04:15:34.962Z,4.65
2019-04-01T04:18:05.745Z,4.42
2019-04-01T04:20:36.053Z,4.38
2019-04-01T04:23:06.468Z,4.31
2019-04-01T04:25:36.968Z,4.28
2019-04-01T04:28:07.774Z,4.16
2019-04-01T04:30:38.153Z,4.10
2019-04-01T04:33:08.605Z,4.14
2019-04-01T04:35:39.016Z,3.99
2019-04-01T04:38:09.458Z,3.86
2019-04-01T04:40:41.148Z,3.85
2019-04-01T04:43:11.667Z,3.96
2019-04-01T04:45:42.332Z,4.03
2019-04-01T04:48:12.759Z,4.01
2019-04-01T04:50:43.120Z,3.92
2019-04-01T04:53:13.615Z,3.84
2019-04-01T04:55:45.993Z,3.77
2019-04-01T04:58:16.375Z,3.74
2019-04-01T05:00:47.635Z,3.65
2019-04-01T05:03:18.087Z,3.60
2019-04-01T05:05:48.904Z,3.61
2019-04-01T05:08:20.190Z,3.61
2019-04-01T05:10:50.654Z,3.56
2019-04-01T05:13:20.979Z,3.54
2019-04-01T05:15:51.393Z,3.53
2019-04-01T05:18:21.803Z,3.58
2019-04-01T05:20:52.672Z,3.70
2019-04-01T05:23:25.189Z,3.66
2019-04-01T05:25:56.076Z,3.70
2019-04-01T05:28:28.982Z,3.71
2019-04-01T05:31:01.732Z,3.76
2019-04-01T05:33:35.124Z,3.75
2019-04-01T05:36:05.858Z,3.82
2019-04-01T05:38:36.429Z,3.86
2019-04-01T05:41:07.655Z,4.00
2019-04-01T05:43:38.119Z,4.04
2019-04-01T05:46:08.557Z,4.05
2019-04-01T05:48:38.967Z,4.12
2019-04-01T05:51:09.354Z,4.22
2019-04-01T05:53:39.821Z,4.30
2019-04-01T05:56:11.306Z,4.48
2019-04-01T05:58:43.359Z,4.51
2019-04-01T06:01:21.592Z,4.59
2019-04-01T06:03:53.031Z,4.77
2019-04-01T06:06:23.445Z,4.87
2019-04-01T06:08:54.127Z,5.00
2019-04-01T06:11:24.487Z,5.15
2019-04-01T06:13:55.160Z,5.48
2019-04-01T06:16:25.664Z,5.60
2019-04-01T06:18:56.099Z,5.65
2019-04-01T06:21:27.122Z,5.85
2019-04-01T06:23:58.529Z,5.96
2019-04-01T06:26:29.175Z,6.20
2019-04-01T06:28:59.503Z,6.40
2019-04-01T06:31:30.164Z,6.62
2019-04-01T06:34:00.758Z,6.62
2019-04-01T06:36:31.228Z,6.90
2019-04-01T06:39:01.807Z,6.85
2019-04-01T06:41:32.290Z,6.94
2019-04-01T06:44:02.690Z,7.14
2019-04-01T06:46:33.067Z,7.11
2019-04-01T06:49:04.178Z,7.25
2019-04-01T06:51:35.081Z,7.40
2019-04-01T06:54:05.990Z,7.73
2019-04-01T06:56:36.392Z,7.92
2019-04-01T06:59:06.879Z,7.85
2019-04-01T07:01:37.255Z,7.60
2019-04-01T07:04:08.195Z,7.69
2019-04-01T07:06:38.888Z,7.83
2019-04-01T07:09:09.314Z,7.80
2019-04-01T07:11:39.840Z,7.93
2019-04-01T07:14:10.355Z,7.95
2019-04-01T07:16:40.872Z,8.14
2019-04-01T07:19:11.319Z,7.98
2019-04-01T07:21:42.603Z,8.45
2019-04-01T07:24:13.365Z,8.63
2019-04-01T07:26:45.005Z,8.94
2019-04-01T07:29:15.507Z,9.11
2019-04-01T07:31:45.937Z,9.39
2019-04-01T07:34:17.286Z,9.62
2019-04-01T07:36:47.748Z,9.11
2019-04-01T07:39:18.204Z,8.80
2019-04-01T07:41:48.611Z,9.16
2019-04-01T07:44:19.116Z,8.79
2019-04-01T07:46:49.432Z,9.38
2019-04-01T07:49:20.268Z,8.70
2019-04-01T07:51:50.810Z,9.13
2019-04-01T07:54:21.555Z,8.91
2019-04-01T07:56:51.957Z,9.13
2019-04-01T07:59:22.792Z,9.03
2019-04-01T08:01:53.969Z,9.26
2019-04-01T08:04:24.526Z,9.36
2019-04-01T08:06:55.204Z,9.65
2019-04-01T08:09:25.759Z,9.26
2019-04-01T08:11:56.280Z,9.23
2019-04-01T08:14:26.980Z,9.05
2019-04-01T08:16:58.670Z,9.29
2019-04-01T08:19:29.415Z,9.50
2019-04-01T08:22:00.103Z,9.20
2019-04-01T08:24:32.132Z,9.20
2019-04-01T08:27:02.904Z,9.19
2019-04-01T08:29:33.387Z,9.60
2019-04-01T08:32:04.528Z,9.60
2019-04-01T08:34:35.137Z,9.43
2019-04-01T08:37:05.638Z,9.47
2019-04-01T08:39:37.553Z,9.71
2019-04-01T08:42:07.891Z,10.42
2019-04-01T08:44:38.715Z,10.42
2019-04-01T08:47:09.478Z,10.23
2019-04-01T08:49:39.915Z,10.25
2019-04-01T08:52:10.619Z,10.15
2019-04-01T08:54:41.081Z,10.47
2019-04-01T08:57:11.597Z,10.85
2019-04-01T08:59:42.513Z,11.02
2019-04-01T09:02:17.985Z,11.02
2019-04-01T09:04:45.669Z,11.13
2019-04-01T09:07:16.444Z,11.21
2019-04-01T09:09:48.365Z,10.86
2019-04-01T09:12:19.006Z,11.11
2019-04-01T09:14:51.884Z,11.77
2019-04-01T09:17:23.346Z,10.90
2019-04-01T09:19:54.310Z,11.46
2019-04-01T09:22:25.128Z,11.77
2019-04-01T09:24:55.506Z,11.62
2019-04-01T09:27:25.927Z,11.70
2019-04-01T09:29:56.387Z,12.48
2019-04-01T09:32:26.727Z,12.49
2019-04-01T09:34:57.531Z,13.17
2019-04-01T09:37:28.233Z,13.55
2019-04-01T09:39:58.806Z,13.50
2019-04-01T09:42:29.628Z,14.00
2019-04-01T09:45:00.046Z,13.38
2019-04-01T09:47:30.501Z,13.05
2019-04-01T09:50:01.289Z,13.77
2019-04-01T09:52:31.717Z,13.90
2019-04-01T09:55:05.875Z,13.38
2019-04-01T09:57:34.598Z,13.43
2019-04-01T10:00:05.988Z,13.10
2019-04-01T10:02:36.338Z,13.90
2019-04-01T10:05:07.430Z,13.99
2019-04-01T10:07:38.087Z,13.30
2019-04-01T10:10:09.024Z,13.87
2019-04-01T10:12:39.515Z,14.29
2019-04-01T10:15:10.581Z,12.94
2019-04-01T10:17:41.001Z,12.46
2019-04-01T10:20:12.850Z,12.25
2019-04-01T10:22:43.285Z,12.02
2019-04-01T10:25:13.777Z,11.60
2019-04-01T10:27:44.262Z,11.87
2019-04-01T10:30:15.300Z,11.77
2019-04-01T10:32:45.758Z,11.95
2019-04-01T10:35:17.587Z,12.48
2019-04-01T10:37:48.098Z,12.34
2019-04-01T10:40:20.523Z,12.28
2019-04-01T10:42:50.902Z,12.22
2019-04-01T10:45:22.302Z,12.48
2019-04-01T10:47:52.844Z,13.34
2019-04-01T10:50:23.713Z,12.86
2019-04-01T10:52:54.175Z,13.68
2019-04-01T10:55:24.628Z,13.32
2019-04-01T10:57:55.558Z,13.44
2019-04-01T11:00:26.679Z,12.93
2019-04-01T11:02:57.102Z,12.82
2019-04-01T11:05:27.686Z,13.25
2019-04-01T11:07:58.706Z,13.34
2019-04-01T11:10:29.811Z,13.46
2019-04-01T11:13:00.269Z,13.29
2019-04-01T11:15:31.054Z,13.31
2019-04-01T11:18:01.538Z,13.38
2019-04-01T11:20:31.989Z,13.12
2019-04-01T11:23:03.123Z,13.40
2019-04-01T11:25:34.810Z,13.29
2019-04-01T11:28:05.755Z,13.40
2019-04-01T11:30:37.090Z,13.30
2019-04-01T11:33:08.198Z,13.41
2019-04-01T11:35:38.718Z,13.42
2019-04-01T11:38:09.386Z,13.45
2019-04-01T11:40:40.102Z,13.58
2019-04-01T11:43:11.029Z,13.85
2019-04-01T11:45:41.481Z,13.57
2019-04-01T11:48:12.108Z,13.74
2019-04-01T11:50:42.569Z,13.77
2019-04-01T11:53:13.236Z,13.55
2019-04-01T11:55:43.622Z,13.84
2019-04-01T11:58:14.320Z,14.14
2019-04-01T12:00:44.982Z,13.99
2019-04-01T12:03:15.700Z,14.25
2019-04-01T12:05:46.141Z,13.92
2019-04-01T12:08:16.487Z,14.39
2019-04-01T12:10:46.904Z,14.35
2019-04-01T12:13:17.379Z,14.49
2019-04-01T12:15:47.891Z,14.17
2019-04-01T12:18:18.744Z,13.85
2019-04-01T12:20:49.173Z,14.34
2019-04-01T12:23:19.952Z,14.58
2019-04-01T12:25:50.350Z,14.34
2019-04-01T12:28:21.054Z,14.68
2019-04-01T12:30:52.181Z,14.43
2019-04-01T12:33:25.963Z,14.60
2019-04-01T12:35:55.744Z,14.58
2019-04-01T12:38:26.182Z,14.72
2019-04-01T12:40:56.681Z,15.07
2019-04-01T12:43:27.160Z,14.99
2019-04-01T12:45:57.866Z,14.74
2019-04-01T12:48:28.900Z,14.70
2019-04-01T12:50:59.546Z,14.66
2019-04-01T12:53:29.990Z,14.93
2019-04-01T12:56:00.419Z,14.65
2019-04-01T12:58:30.860Z,14.73
2019-04-01T13:01:01.375Z,15.02
2019-04-01T13:03:31.737Z,15.33
2019-04-01T13:06:02.167Z,15.02
2019-04-01T13:08:32.584Z,15.10
2019-04-01T13:11:03.079Z,15.18
2019-04-01T13:13:33.516Z,15.09
2019-04-01T13:16:03.936Z,15.34
2019-04-01T13:18:37.971Z,15.15
2019-04-01T13:21:06.646Z,15.46
2019-04-01T13:23:37.108Z,15.45
2019-04-01T13:26:07.583Z,15.49
2019-04-01T13:28:37.925Z,15.59
2019-04-01T13:31:08.470Z,15.44
2019-04-01T13:33:38.997Z,15.40
2019-04-01T13:36:09.447Z,15.57
2019-04-01T13:38:39.887Z,15.17
2019-04-01T13:41:13.154Z,15.11
2019-04-01T13:43:42.431Z,15.28
2019-04-01T13:46:12.788Z,15.57
2019-04-01T13:48:56.929Z,15.65
2019-04-01T13:51:15.459Z,15.66
2019-04-01T13:53:45.919Z,15.70
2019-04-01T13:56:16.626Z,15.75
2019-04-01T13:58:47.159Z,15.83
2019-04-01T14:01:17.608Z,15.59
2019-04-01T14:03:48.114Z,15.77
2019-04-01T14:06:18.485Z,16.05
2019-04-01T14:08:48.892Z,16.02
2019-04-01T14:11:20.011Z,15.95
2019-04-01T14:13:50.412Z,16.07
2019-04-01T14:16:20.795Z,15.89
2019-04-01T14:18:51.491Z,15.89
2019-04-01T14:21:23.390Z,16.15
2019-04-01T14:23:53.981Z,15.99
2019-04-01T14:26:24.715Z,16.33
2019-04-01T14:28:55.242Z,16.00
2019-04-01T14:31:25.695Z,16.18
2019-04-01T14:33:56.180Z,16.04
2019-04-01T14:36:26.834Z,16.09
2019-04-01T14:38:57.225Z,15.97
2019-04-01T14:41:27.691Z,15.81
2019-04-01T14:43:58.191Z,16.02
2019-04-01T14:46:28.986Z,15.87
2019-04-01T14:49:00.543Z,16.13
2019-04-01T14:51:31.693Z,16.26
2019-04-01T14:54:02.133Z,16.03
2019-04-01T14:56:32.579Z,15.99
2019-04-01T14:59:02.945Z,15.67
2019-04-01T15:01:33.367Z,16.08
2019-04-01T15:04:03.784Z,16.10
2019-04-01T15:06:34.242Z,16.18
2019-04-01T15:09:06.292Z,16.23
2019-04-01T15:11:36.671Z,16.20
2019-04-01T15:14:08.574Z,16.27
2019-04-01T15:16:39.092Z,16.22
2019-04-01T15:19:12.672Z,16.37
2019-04-01T15:21:41.674Z,16.18
2019-04-01T15:24:12.367Z,16.16
2019-04-01T15:26:43.080Z,16.09
2019-04-01T15:29:13.531Z,15.99
2019-04-01T15:31:44.057Z,15.98
2019-04-01T15:34:14.569Z,16.09
2019-04-01T15:36:45.040Z,16.19
2019-04-01T15:39:16.252Z,16.07
2019-04-01T15:41:46.687Z,16.07
2019-04-01T15:44:17.219Z,16.07
2019-04-01T15:46:49.672Z,16.05
2019-04-01T15:49:20.133Z,16.06
2019-04-01T15:51:50.974Z,16.13
2019-04-01T15:54:22.915Z,15.97
2019-04-01T15:56:53.388Z,15.95
2019-04-01T15:59:25.481Z,15.86
2019-04-01T16:01:59.453Z,16.01
2019-04-01T16:04:32.046Z,16.08
2019-04-01T16:07:02.782Z,16.05
2019-04-01T16:09:33.737Z,15.93
2019-04-01T16:12:05.406Z,15.86
2019-04-01T16:14:35.847Z,15.92
2019-04-01T16:17:06.232Z,15.96
2019-04-01T16:19:37.028Z,15.86
2019-04-01T16:22:07.445Z,15.84
2019-04-01T16:24:40.215Z,15.79
2019-04-01T16:27:10.684Z,15.78
2019-04-01T16:29:41.478Z,15.73
2019-04-01T16:32:11.961Z,15.67
2019-04-01T16:34:42.658Z,15.75
2019-04-01T16:37:13.090Z,15.64
2019-04-01T16:39:43.571Z,15.58
2019-04-01T16:42:13.977Z,15.59
2019-04-01T16:44:44.403Z,15.57
2019-04-01T16:47:17.511Z,15.57
2019-04-01T16:49:49.218Z,15.49
2019-04-01T16:52:22.734Z,15.47
2019-04-01T16:55:02.280Z,15.52
2019-04-01T16:57:32.717Z,15.45
2019-04-01T17:00:03.184Z,15.37
2019-04-01T17:02:33.969Z,15.34
2019-04-01T17:05:04.580Z,15.27
2019-04-01T17:07:35.843Z,15.25
2019-04-01T17:10:07.111Z,15.26
2019-04-01T17:12:40.230Z,15.26
2019-04-01T17:15:10.605Z,15.21
2019-04-01T17:17:41.123Z,15.06
2019-04-01T17:20:12.548Z,14.86
2019-04-01T17:22:43.042Z,14.76
2019-04-01T17:25:15.678Z,14.69
2019-04-01T17:27:46.077Z,14.63
2019-04-01T17:30:16.894Z,14.48
2019-04-01T17:32:49.706Z,14.36
2019-04-01T17:35:20.306Z,14.26
2019-04-01T17:37:50.900Z,14.19
2019-04-01T17:40:22.809Z,14.08
2019-04-01T17:42:55.467Z,13.97
2019-04-01T17:45:34.297Z,13.92
2019-04-01T17:48:05.225Z,13.80
2019-04-01T17:50:35.688Z,13.77
2019-04-01T17:53:08.574Z,13.58
2019-04-01T17:55:39.626Z,13.62
2019-04-01T17:58:10.779Z,13.59
2019-04-01T18:00:44.541Z,13.59
2019-04-01T18:03:16.069Z,13.33
2019-04-01T18:05:46.719Z,13.34
2019-04-01T18:08:17.101Z,13.16
2019-04-01T18:10:48.874Z,13.04
2019-04-01T18:13:20.287Z,12.97
2019-04-01T18:15:51.725Z,12.87
2019-04-01T18:18:27.036Z,12.78
2019-04-01T18:20:57.737Z,12.81
2019-04-01T18:23:28.257Z,12.93
2019-04-01T18:25:58.643Z,13.04
2019-04-01T18:28:29.050Z,12.91
2019-04-01T18:30:59.855Z,12.85
2019-04-01T18:33:30.774Z,12.68
2019-04-01T18:36:01.214Z,12.54
2019-04-01T18:38:31.706Z,12.37
2019-04-01T18:41:02.341Z,12.30
2019-04-01T18:43:32.713Z,12.21
2019-04-01T18:46:03.479Z,12.18
2019-04-01T18:48:34.191Z,11.90
2019-04-01T18:51:04.889Z,11.80
2019-04-01T18:53:36.311Z,11.62
2019-04-01T18:56:07.439Z,11.59
2019-04-01T18:58:37.807Z,11.48
2019-04-01T19:01:08.189Z,11.39
2019-04-01T19:03:41.427Z,11.32
2019-04-01T19:06:11.182Z,11.23
2019-04-01T19:08:41.638Z,11.20
2019-04-01T19:11:12.124Z,11.14
2019-04-01T19:13:42.753Z,11.11
2019-04-01T19:16:16.430Z,11.07
2019-04-01T19:18:45.408Z,11.05
2019-04-01T19:21:15.883Z,11.02
2019-04-01T19:23:46.285Z,10.91
2019-04-01T19:26:16.675Z,10.84
2019-04-01T19:28:47.503Z,10.80
2019-04-01T19:31:17.939Z,10.73
2019-04-01T19:33:48.904Z,10.65
2019-04-01T19:36:19.272Z,10.55
2019-04-01T19:38:49.599Z,10.54
2019-04-01T19:41:20.577Z,10.59
2019-04-01T19:43:51.452Z,10.54
2019-04-01T19:46:21.884Z,10.47
2019-04-01T19:48:52.561Z,10.49
2019-04-01T19:51:22.893Z,10.49
2019-04-01T19:53:53.550Z,10.41
2019-04-01T19:56:24.550Z,10.39
2019-04-01T19:58:54.921Z,10.34
2019-04-01T20:01:25.505Z,10.32
2019-04-01T20:03:56.774Z,10.23
2019-04-01T20:06:27.200Z,10.29
2019-04-01T20:08:57.576Z,10.26
2019-04-01T20:11:27.979Z,10.21
2019-04-01T20:13:58.336Z,10.16
2019-04-01T20:16:28.730Z,10.11
2019-04-01T20:18:59.027Z,10.02
2019-04-01T20:21:29.685Z,9.97
2019-04-01T20:24:00.079Z,9.89
2019-04-01T20:26:30.525Z,9.84
2019-04-01T20:29:02.089Z,9.83
2019-04-01T20:31:33.155Z,9.87
2019-04-01T20:34:04.374Z,9.83
2019-04-01T20:36:35.581Z,9.80
2019-04-01T20:39:08.764Z,9.78
2019-04-01T20:41:39.132Z,9.78
2019-04-01T20:44:09.457Z,9.77
2019-04-01T20:46:39.818Z,9.75
2019-04-01T20:49:11.131Z,9.63
2019-04-01T20:51:42.786Z,9.60
2019-04-01T20:54:16.630Z,9.52
2019-04-01T20:56:48.201Z,9.47
2019-04-01T20:59:19.290Z,9.44
2019-04-01T21:01:49.669Z,9.43
2019-04-01T21:04:20.331Z,9.44
2019-04-01T21:06:50.637Z,9.40
2019-04-01T21:09:20.910Z,9.39
2019-04-01T21:11:51.312Z,9.38
2019-04-01T21:14:22.664Z,9.30
2019-04-01T21:16:53.178Z,9.23
2019-04-01T21:19:23.562Z,9.12
2019-04-01T21:21:53.956Z,9.07
2019-04-01T21:24:24.768Z,9.10
2019-04-01T21:26:55.935Z,9.16
2019-04-01T21:29:27.619Z,9.16
2019-04-01T21:31:58.004Z,9.10
2019-04-01T21:34:28.406Z,9.15
2019-04-01T21:36:59.205Z,9.15
2019-04-01T21:39:30.251Z,9.16
2019-04-01T21:42:01.123Z,9.28
2019-04-01T21:44:31.486Z,9.31
2019-04-01T21:47:02.219Z,9.18
2019-04-01T21:49:32.569Z,9.18
2019-04-01T21:52:04.349Z,9.12
2019-04-01T21:54:34.856Z,8.99
2019-04-01T21:57:05.252Z,8.99
2019-04-01T22:00:00.500Z,8.98
2019-04-01T22:02:36.153Z,8.85
2019-04-01T22:05:05.510Z,8.80
2019-04-01T22:07:35.971Z,8.67
2019-04-01T22:10:07.385Z,8.65
2019-04-01T22:12:40.060Z,8.65
2019-04-01T22:15:12.762Z,8.62
2019-04-01T22:17:43.094Z,8.61
2019-04-01T22:20:13.696Z,8.57
2019-04-01T22:22:44.358Z,8.53
2019-04-01T22:25:14.757Z,8.50
2019-04-01T22:27:45.135Z,8.54
2019-04-01T22:30:17.171Z,8.69
2019-04-01T22:32:48.308Z,8.61
2019-04-01T22:35:18.697Z,8.56
2019-04-01T22:37:49.080Z,8.42
2019-04-01T22:40:19.469Z,8.38
2019-04-01T22:42:50.071Z,8.39
2019-04-01T22:45:20.650Z,8.36
2019-04-01T22:47:51.841Z,8.35
2019-04-01T22:50:22.217Z,8.26
2019-04-01T22:52:52.627Z,8.30
2019-04-01T22:55:22.984Z,8.28
2019-04-01T22:57:53.724Z,8.30
2019-04-01T23:00:24.258Z,8.31
2019-04-01T23:02:54.620Z,8.29
2019-04-01T23:05:25.009Z,8.29
2019-04-01T23:07:55.396Z,8.38
2019-04-01T23:10:27.191Z,8.42
2019-04-01T23:12:58.053Z,8.39
2019-04-01T23:15:28.382Z,8.35
2019-04-01T23:17:58.740Z,8.40
2019-04-01T23:20:29.391Z,8.45
2019-04-01T23:22:59.761Z,8.44
2019-04-01T23:25:30.170Z,8.44
2019-04-01T23:28:00.535Z,8.40
2019-04-01T23:30:30.969Z,8.29
2019-04-01T23:33:01.614Z,8.25
2019-04-01T23:35:32.026Z,8.16
2019-04-01T23:38:02.355Z,8.10
2019-04-01T23:40:32.884Z,8.03
2019-04-01T23:43:03.587Z,7.86
2019-04-01T23:45:33.986Z,7.89
2019-04-01T23:48:04.716Z,7.79
2019-04-01T23:50:35.825Z,7.73
2019-04-01T23:53:06.313Z,7.76
2019-04-01T23:55:36.594Z,7.72
2019-04-01T23:58:07.522Z,7.65
